Spring Valley, MN (55975)

6:38 AM CDT on October 02, 2014 (GMT -0500)
Preston | Change Station
CLOSE
Current Station
Airport
Location: Preston,
Elevation: 1276 ft
Nearby Weather Stations
Active Advisory: Dense Fog Advisory Active Notice: Public Information Statement

Elev 1276 ft 43.68 °N, 92.17 °W | Updated 3 minutes ago

Fog
Fog
54 °F
Feels Like 54 °F
N
0
Wind Variable Wind from North

Today
High -- | Low -- °F
--% Chance of Precip.
Yesterday
High -- | Low -- °F
Precip. -- in
7:08 AM 6:48 PM
First Quarter, 58% visible
Pressure 29.85 in
Visibility 0.2 miles
Clouds Overcast 100 ft
Dew Point 54 °F
Humidity 97%
Rainfall 0.00 in
Snow Depth Not available.
UV 0 out of 12
Pollen .40 out of 12
Air Quality Not available.
Flu Activity Not available.
METAR KFKA 021135Z AUTO 00000KT 1/4SM FG OVC001 12/12 A2985 RMK AO2 T01240120

More Conditions Fewer Conditions

Pressure 29.85 in
Visibility 0.2 miles
Clouds Overcast 100 ft
Dew Point 54 °F
Humidity 97%
Rainfall 0.00 in
Snow Depth Not available.
UV 0 out of 12
Pollen .40 out of 12
Air Quality Not available.
Flu Activity Not available.
METAR KFKA 021135Z AUTO 00000KT 1/4SM FG OVC001 12/12 A2985 RMK AO2 T01240120

More Conditions Fewer Conditions

10-Day Weather Forecast

Almanac

Astronomy

Oct. 02, 2014 Rise Set
Actual Time 7:08 AM CDT 6:48 PM CDT
Civil Twilight 6:39 AM CDT 7:17 PM CDT
Nautical Twilight 6:06 AM CDT 7:50 PM CDT
Astronomical Twilight 5:32 AM CDT 8:24 PM CDT
Moon 3:05 PM CDT 12:15 AM CDT
Length of Visible Light 12h 37m
Length of Day
11h 40m
Tomorrow will be 2m 58s shorter.
First Quarter, 58% of the Moon is Illuminated
Today
First Quarter
Oct 8
Full
Oct 15
Last Quarter
Oct 23
New
Oct 30
First Quarter

Today's Extremes

State Highs State Lows

Community

WunderPhotos

Upload Photos

1,758,219 photos uploaded!

WunderBlogs® & News

Nearby

Snow Depth

Station Depth Elevation
No new snow has been reported.

Earthquake Activity

City Distance Mag. Time & Date
No recent earthquake activity has been reported nearby.
Minimum magnitude displayed is 2.5.

Coastal Water Temperatures

Place Temperature
No Stations Reporting

Nearby Weather Stations